createdAt,value
2022-07-29T00:01:47.125Z,18.34
2022-07-29T00:04:16.860Z,18.35
2022-07-29T00:06:48.062Z,18.30
2022-07-29T00:09:17.444Z,18.37
2022-07-29T00:11:46.705Z,18.44
2022-07-29T00:14:16.402Z,18.42
2022-07-29T00:16:46.249Z,18.58
2022-07-29T00:19:15.656Z,18.56
2022-07-29T00:21:46.369Z,18.61
2022-07-29T00:24:16.066Z,18.52
2022-07-29T00:26:45.639Z,18.62
2022-07-29T00:29:33.484Z,18.65
2022-07-29T00:32:03.980Z,18.53
2022-07-29T00:34:51.180Z,18.71
2022-07-29T00:37:22.065Z,18.67
2022-07-29T00:39:51.646Z,18.77
2022-07-29T00:42:21.027Z,18.78
2022-07-29T00:44:50.428Z,18.70
2022-07-29T00:47:19.752Z,18.74
2022-07-29T00:49:49.367Z,18.71
2022-07-29T00:52:18.805Z,18.69
2022-07-29T00:54:49.528Z,18.73
2022-07-29T00:57:19.169Z,18.71
2022-07-29T00:59:48.434Z,18.70
2022-07-29T01:02:17.777Z,18.73
2022-07-29T01:04:47.281Z,18.81
2022-07-29T01:07:16.971Z,18.85
2022-07-29T01:09:47.589Z,18.78
2022-07-29T01:12:21.286Z,18.79
2022-07-29T01:14:52.325Z,18.83
2022-07-29T01:17:27.899Z,18.71
2022-07-29T01:20:05.171Z,18.75
2022-07-29T01:22:58.788Z,18.76
2022-07-29T01:26:28.897Z,18.80
2022-07-29T01:29:10.069Z,18.71
2022-07-29T01:31:58.663Z,18.79
2022-07-29T01:34:37.487Z,18.75
2022-07-29T01:37:17.737Z,18.81
2022-07-29T01:39:51.539Z,18.89
2022-07-29T01:42:29.909Z,18.90
2022-07-29T01:45:07.816Z,18.66
2022-07-29T01:47:44.371Z,18.85
2022-07-29T01:50:20.024Z,18.76
2022-07-29T01:52:58.350Z,18.87
2022-07-29T01:55:33.228Z,18.92
2022-07-29T01:58:05.974Z,18.62
2022-07-29T02:00:39.851Z,18.88
2022-07-29T02:03:15.994Z,18.84
2022-07-29T02:05:47.980Z,18.67
2022-07-29T02:08:20.856Z,18.89
2022-07-29T02:10:52.059Z,18.95
2022-07-29T02:13:24.104Z,18.94
2022-07-29T02:15:56.708Z,18.94
2022-07-29T02:18:30.021Z,18.64
2022-07-29T02:21:02.221Z,18.93
2022-07-29T02:23:45.155Z,18.97
2022-07-29T02:26:22.732Z,18.93
2022-07-29T02:28:56.241Z,19.01
2022-07-29T02:31:34.854Z,18.96
2022-07-29T02:34:07.304Z,18.98
2022-07-29T02:36:37.273Z,19.07
2022-07-29T02:39:10.836Z,19.07
2022-07-29T02:41:46.881Z,19.13
2022-07-29T02:44:19.815Z,18.99
2022-07-29T02:46:54.764Z,19.17
2022-07-29T02:49:40.767Z,19.19
2022-07-29T02:52:20.641Z,19.10
2022-07-29T02:54:57.027Z,19.12
2022-07-29T02:57:54.656Z,19.12
2022-07-29T03:00:29.858Z,19.06
2022-07-29T03:03:06.365Z,19.01
2022-07-29T03:05:36.597Z,19.17
2022-07-29T03:08:11.541Z,19.17
2022-07-29T03:10:45.191Z,19.17
2022-07-29T03:13:15.766Z,19.15
2022-07-29T03:15:46.407Z,19.04
2022-07-29T03:18:17.683Z,19.07
2022-07-29T03:20:47.080Z,18.91
2022-07-29T03:23:22.742Z,19.15
2022-07-29T03:25:52.700Z,19.10
2022-07-29T03:28:22.477Z,18.98
2022-07-29T03:30:56.691Z,19.12
2022-07-29T03:33:27.462Z,19.14
2022-07-29T03:35:56.791Z,18.99
2022-07-29T03:38:31.128Z,19.03
2022-07-29T03:41:05.739Z,18.94
2022-07-29T03:43:38.798Z,18.89
2022-07-29T03:46:20.117Z,18.49
2022-07-29T03:48:58.492Z,18.73
2022-07-29T03:51:33.729Z,18.63
2022-07-29T03:54:09.687Z,18.63
2022-07-29T03:56:44.247Z,18.64
2022-07-29T03:59:15.056Z,18.59
2022-07-29T04:01:47.019Z,18.58
2022-07-29T04:04:18.714Z,18.61
2022-07-29T04:06:49.147Z,18.49
2022-07-29T04:09:18.520Z,18.57
2022-07-29T04:11:59.156Z,18.67
2022-07-29T04:14:34.289Z,18.63
2022-07-29T04:17:05.052Z,18.65
2022-07-29T04:19:35.850Z,18.59
2022-07-29T04:22:05.311Z,18.71
2022-07-29T04:24:34.632Z,18.67
2022-07-29T04:27:03.814Z,18.72
2022-07-29T04:29:33.065Z,18.68
2022-07-29T04:32:02.358Z,18.70
2022-07-29T04:34:47.868Z,18.68
2022-07-29T04:37:17.251Z,18.73
2022-07-29T04:39:46.489Z,18.72
2022-07-29T04:42:16.105Z,18.74
2022-07-29T04:44:46.930Z,18.72
2022-07-29T04:47:19.777Z,18.68
2022-07-29T04:49:50.349Z,18.78
2022-07-29T04:52:19.662Z,18.69
2022-07-29T04:54:48.885Z,18.49
2022-07-29T04:57:18.113Z,18.71
2022-07-29T04:59:47.394Z,18.74
2022-07-29T05:02:16.921Z,18.70
2022-07-29T05:04:46.628Z,18.65
2022-07-29T05:07:17.474Z,18.33
2022-07-29T05:09:46.831Z,18.73
2022-07-29T05:12:16.103Z,18.70
2022-07-29T05:14:45.633Z,18.80
2022-07-29T05:17:14.941Z,18.83
2022-07-29T05:19:44.615Z,18.78
2022-07-29T05:22:20.843Z,18.65
2022-07-29T05:24:56.580Z,18.77
2022-07-29T05:27:26.075Z,18.72
2022-07-29T05:29:55.324Z,18.73
2022-07-29T05:32:24.567Z,18.70
2022-07-29T05:34:53.780Z,18.54
2022-07-29T05:37:24.957Z,18.75
2022-07-29T05:39:57.188Z,18.69
2022-07-29T05:42:28.848Z,18.75
2022-07-29T05:44:58.337Z,18.62
2022-07-29T05:47:28.064Z,18.62
2022-07-29T05:49:57.581Z,18.74
2022-07-29T05:52:28.277Z,18.69
2022-07-29T05:54:57.774Z,18.76
2022-07-29T05:57:27.301Z,18.45
2022-07-29T05:59:56.863Z,18.88
2022-07-29T06:02:28.790Z,18.87
2022-07-29T06:05:02.882Z,19.02
2022-07-29T06:07:36.411Z,18.89
2022-07-29T06:10:09.112Z,19.10
2022-07-29T06:12:38.735Z,19.21
2022-07-29T06:15:09.662Z,19.25
2022-07-29T06:17:40.093Z,19.12
2022-07-29T06:20:30.929Z,19.22
2022-07-29T06:23:04.537Z,19.29
2022-07-29T06:25:35.869Z,19.10
2022-07-29T06:28:08.367Z,19.36
2022-07-29T06:30:37.804Z,19.43
2022-07-29T06:33:07.508Z,19.25
2022-07-29T06:35:42.413Z,19.49
2022-07-29T06:38:31.006Z,19.50
2022-07-29T06:41:04.966Z,19.59
2022-07-29T06:43:50.219Z,19.61
2022-07-29T06:46:22.274Z,19.73
2022-07-29T06:48:53.047Z,19.73
2022-07-29T06:51:24.075Z,19.77
2022-07-29T06:53:59.564Z,19.83
2022-07-29T06:56:39.650Z,19.86
2022-07-29T06:59:11.231Z,19.86
2022-07-29T07:01:43.158Z,19.90
2022-07-29T07:04:13.607Z,19.86
2022-07-29T07:06:43.231Z,19.97
2022-07-29T07:09:13.856Z,19.92
2022-07-29T07:11:43.233Z,19.87
2022-07-29T07:14:12.501Z,19.97
2022-07-29T07:16:42.126Z,19.95
2022-07-29T07:19:11.560Z,20.00
2022-07-29T07:21:43.504Z,20.04
2022-07-29T07:24:14.440Z,20.10
2022-07-29T07:26:44.124Z,20.07
2022-07-29T07:29:14.100Z,19.99
2022-07-29T07:31:43.566Z,20.16
2022-07-29T07:34:13.020Z,20.21
2022-07-29T07:36:42.644Z,20.31
2022-07-29T07:39:13.353Z,20.39
2022-07-29T07:41:42.798Z,20.47
2022-07-29T07:44:15.966Z,20.56
2022-07-29T07:46:46.023Z,20.71
2022-07-29T07:49:15.387Z,20.68
2022-07-29T07:51:44.635Z,20.64
2022-07-29T07:54:21.660Z,20.84
2022-07-29T07:56:53.327Z,20.89
2022-07-29T07:59:23.317Z,20.99
2022-07-29T08:01:56.023Z,21.03
2022-07-29T08:04:28.649Z,21.10
2022-07-29T08:06:59.414Z,21.14
2022-07-29T08:09:31.681Z,21.18
2022-07-29T08:12:03.390Z,21.28
2022-07-29T08:14:32.899Z,21.35
2022-07-29T08:17:02.582Z,21.49
2022-07-29T08:19:31.871Z,21.53
2022-07-29T08:22:01.326Z,21.51
2022-07-29T08:24:54.871Z,21.51
2022-07-29T08:27:43.090Z,21.49
2022-07-29T08:30:13.690Z,21.65
2022-07-29T08:32:53.657Z,21.64
2022-07-29T08:35:25.591Z,21.85
2022-07-29T08:37:56.820Z,21.92
2022-07-29T08:40:32.051Z,22.01
2022-07-29T08:43:07.451Z,22.18
2022-07-29T08:45:48.087Z,22.39
2022-07-29T08:48:19.458Z,22.55
2022-07-29T08:50:50.602Z,22.71
2022-07-29T08:53:20.965Z,22.91
2022-07-29T08:55:52.667Z,23.10
2022-07-29T08:58:24.654Z,23.28
2022-07-29T09:00:58.046Z,23.44
2022-07-29T09:03:32.298Z,23.82
2022-07-29T09:06:02.861Z,24.31
2022-07-29T09:08:34.341Z,24.69
2022-07-29T09:11:05.837Z,25.02
2022-07-29T09:13:38.670Z,25.36
2022-07-29T09:16:09.804Z,25.52
2022-07-29T09:18:42.171Z,25.63
2022-07-29T09:21:31.478Z,25.80
2022-07-29T09:24:08.809Z,26.01
2022-07-29T09:26:43.655Z,26.43
2022-07-29T09:29:15.194Z,26.87
2022-07-29T09:31:46.893Z,27.04
2022-07-29T09:34:18.657Z,27.31
2022-07-29T09:36:50.296Z,27.54
2022-07-29T09:39:32.210Z,27.97
2022-07-29T09:42:05.595Z,28.40
2022-07-29T09:44:47.159Z,29.06
2022-07-29T09:47:17.444Z,29.43
2022-07-29T09:49:59.461Z,29.34
2022-07-29T09:52:30.993Z,29.14
2022-07-29T09:55:08.437Z,28.63
2022-07-29T09:57:39.872Z,28.29
2022-07-29T10:00:12.065Z,27.98
2022-07-29T10:02:42.380Z,27.54
2022-07-29T10:05:22.243Z,27.39
2022-07-29T10:07:57.394Z,27.12
2022-07-29T10:10:29.448Z,26.90
2022-07-29T10:13:07.119Z,26.69
2022-07-29T10:15:42.050Z,26.27
2022-07-29T10:18:13.293Z,26.08
2022-07-29T10:20:43.508Z,25.76
2022-07-29T10:23:13.745Z,25.60
2022-07-29T10:25:46.214Z,25.35
2022-07-29T10:28:17.401Z,25.32
2022-07-29T10:30:48.322Z,25.31
2022-07-29T10:33:38.845Z,25.29
2022-07-29T10:36:25.657Z,25.42
2022-07-29T10:39:07.572Z,25.42
2022-07-29T10:41:58.697Z,25.42
2022-07-29T10:44:30.228Z,25.50
2022-07-29T10:46:59.574Z,25.56
2022-07-29T10:49:31.165Z,25.53
2022-07-29T10:52:05.996Z,25.53
2022-07-29T10:54:52.641Z,25.51
2022-07-29T10:57:53.140Z,25.45
2022-07-29T11:00:35.164Z,25.37
2022-07-29T11:03:10.521Z,25.22
2022-07-29T11:05:59.403Z,24.94
2022-07-29T11:08:31.855Z,24.79
2022-07-29T11:11:43.790Z,24.62
2022-07-29T11:15:02.765Z,24.42
2022-07-29T11:18:15.111Z,24.44
2022-07-29T11:20:51.163Z,24.50
2022-07-29T11:23:25.659Z,24.63
2022-07-29T11:26:23.405Z,24.84
2022-07-29T11:29:08.351Z,25.00
2022-07-29T11:31:42.444Z,25.12
2022-07-29T11:34:27.819Z,25.20
2022-07-29T11:40:20.258Z,25.65
2022-07-29T11:42:54.990Z,25.83
2022-07-29T11:45:42.496Z,25.94
2022-07-29T11:48:29.466Z,25.82
2022-07-29T11:51:09.347Z,25.69
2022-07-29T11:53:41.004Z,25.48
2022-07-29T11:56:17.182Z,25.06
2022-07-29T11:58:47.783Z,25.08
2022-07-29T12:01:20.524Z,24.90
2022-07-29T12:03:51.033Z,24.78
2022-07-29T12:06:21.807Z,24.72
2022-07-29T12:08:51.518Z,24.61
2022-07-29T12:11:23.559Z,24.65
2022-07-29T12:13:53.986Z,24.45
2022-07-29T12:16:29.272Z,24.68
2022-07-29T12:19:02.443Z,24.77
2022-07-29T12:21:53.817Z,24.92
2022-07-29T12:24:27.439Z,25.07
2022-07-29T12:27:00.281Z,25.31
2022-07-29T12:29:33.655Z,25.40
2022-07-29T12:32:04.776Z,25.52
2022-07-29T12:34:34.988Z,25.50
2022-07-29T12:37:10.660Z,25.75
2022-07-29T12:39:40.225Z,25.69
2022-07-29T12:42:15.076Z,25.70
2022-07-29T12:44:52.730Z,25.97
2022-07-29T12:47:23.184Z,25.91
2022-07-29T12:49:53.661Z,25.98
2022-07-29T12:52:36.265Z,25.87
2022-07-29T12:55:06.811Z,25.78
2022-07-29T12:57:48.642Z,25.70
2022-07-29T13:00:18.979Z,25.73
2022-07-29T13:02:58.387Z,25.67
2022-07-29T13:05:48.550Z,25.61
2022-07-29T13:08:22.324Z,25.55
2022-07-29T13:10:52.603Z,25.51
2022-07-29T13:13:21.939Z,25.30
2022-07-29T13:16:09.564Z,25.33
2022-07-29T13:18:38.945Z,25.26
2022-07-29T13:21:16.135Z,25.28
2022-07-29T13:23:47.387Z,25.23
2022-07-29T13:26:20.723Z,25.33
2022-07-29T13:28:50.202Z,25.52
2022-07-29T13:31:19.501Z,25.70
2022-07-29T13:33:48.945Z,25.71
2022-07-29T13:36:18.637Z,25.59
2022-07-29T13:38:49.385Z,25.79
2022-07-29T13:41:19.221Z,25.78
2022-07-29T13:43:49.995Z,26.06
2022-07-29T13:46:19.600Z,26.11
2022-07-29T13:48:48.964Z,26.27
2022-07-29T13:51:18.444Z,26.38
2022-07-29T13:53:49.012Z,26.43
2022-07-29T13:56:18.391Z,26.39
2022-07-29T13:58:48.651Z,26.32
2022-07-29T14:01:18.033Z,26.32
2022-07-29T14:03:47.462Z,26.27
2022-07-29T14:06:16.638Z,26.21
2022-07-29T14:08:49.054Z,26.05
2022-07-29T14:11:18.705Z,25.89
2022-07-29T14:13:47.937Z,25.99
2022-07-29T14:16:18.394Z,25.78
2022-07-29T14:18:48.081Z,25.59
2022-07-29T14:21:17.393Z,25.51
2022-07-29T14:23:46.540Z,25.67
2022-07-29T14:26:21.786Z,25.65
2022-07-29T14:28:53.762Z,25.79
2022-07-29T14:31:23.031Z,25.81
2022-07-29T14:33:52.604Z,25.84
2022-07-29T14:36:21.897Z,25.77
2022-07-29T14:38:51.103Z,25.55
2022-07-29T14:41:22.696Z,25.74
2022-07-29T14:43:53.199Z,25.76
2022-07-29T14:46:22.831Z,25.83
2022-07-29T14:48:52.058Z,25.90
2022-07-29T14:51:21.928Z,25.98
2022-07-29T14:53:51.224Z,25.94
2022-07-29T14:56:36.556Z,26.10
2022-07-29T14:59:06.967Z,26.05
2022-07-29T15:01:36.607Z,26.08
2022-07-29T15:04:06.674Z,26.03
2022-07-29T15:06:37.333Z,25.93
2022-07-29T15:09:06.631Z,26.02
2022-07-29T15:11:38.655Z,26.05
2022-07-29T15:14:08.395Z,26.04
2022-07-29T15:16:38.870Z,26.21
2022-07-29T15:19:08.496Z,26.26
2022-07-29T15:21:48.229Z,26.21
2022-07-29T15:24:18.613Z,26.31
2022-07-29T15:26:50.363Z,26.27
2022-07-29T15:29:19.773Z,26.46
2022-07-29T15:31:49.339Z,26.40
2022-07-29T15:34:18.757Z,26.12
2022-07-29T15:36:52.926Z,26.26
2022-07-29T15:39:24.025Z,26.40
2022-07-29T15:41:55.316Z,26.39
2022-07-29T15:44:24.947Z,26.43
2022-07-29T15:47:07.442Z,26.39
2022-07-29T15:49:48.213Z,26.31
2022-07-29T15:52:26.225Z,26.27
2022-07-29T15:54:57.960Z,26.20
2022-07-29T15:57:28.805Z,26.29
2022-07-29T15:59:58.414Z,26.12
2022-07-29T16:02:27.770Z,26.17
2022-07-29T16:04:56.922Z,26.19
2022-07-29T16:07:31.386Z,26.05
2022-07-29T16:10:02.131Z,26.16
2022-07-29T16:12:33.437Z,26.16
2022-07-29T16:15:07.535Z,26.15
2022-07-29T16:17:39.170Z,25.87
2022-07-29T16:20:10.542Z,25.88
2022-07-29T16:22:41.882Z,25.76
2022-07-29T16:25:11.670Z,25.75
2022-07-29T16:27:42.408Z,25.82
2022-07-29T16:30:12.684Z,25.84
2022-07-29T16:32:41.954Z,25.93
2022-07-29T16:35:11.853Z,25.98
2022-07-29T16:37:41.109Z,25.88
2022-07-29T16:40:11.587Z,25.90
2022-07-29T16:42:47.253Z,25.80
2022-07-29T16:45:21.235Z,25.75
2022-07-29T16:47:51.577Z,25.73
2022-07-29T16:50:22.092Z,25.62
2022-07-29T16:52:52.172Z,25.60
2022-07-29T16:55:21.729Z,25.48
2022-07-29T16:57:53.706Z,25.54
2022-07-29T17:00:24.058Z,25.39
2022-07-29T17:02:53.367Z,25.46
2022-07-29T17:05:22.627Z,25.37
2022-07-29T17:07:52.332Z,25.39
2022-07-29T17:10:22.516Z,25.29
2022-07-29T17:12:53.917Z,25.33
2022-07-29T17:15:23.443Z,25.37
2022-07-29T17:17:55.197Z,25.44
2022-07-29T17:20:27.031Z,25.34
2022-07-29T17:22:56.456Z,25.31
2022-07-29T17:25:26.133Z,25.32
2022-07-29T17:28:00.760Z,25.30
2022-07-29T17:30:31.073Z,25.27
2022-07-29T17:33:00.405Z,25.19
2022-07-29T17:35:47.099Z,25.18
2022-07-29T17:38:16.314Z,25.08
2022-07-29T17:40:45.454Z,25.00
2022-07-29T17:43:16.239Z,24.94
2022-07-29T17:45:50.052Z,24.91
2022-07-29T17:48:20.884Z,24.82
2022-07-29T17:50:50.789Z,24.81
2022-07-29T17:53:20.292Z,24.72
2022-07-29T17:55:49.776Z,24.54
2022-07-29T17:58:20.495Z,24.67
2022-07-29T18:00:50.267Z,24.67
2022-07-29T18:03:20.831Z,24.67
2022-07-29T18:05:50.665Z,24.64
2022-07-29T18:08:19.932Z,24.51
2022-07-29T18:10:49.192Z,24.58
2022-07-29T18:13:20.286Z,24.57
2022-07-29T18:15:49.657Z,24.51
2022-07-29T18:18:19.109Z,24.58
2022-07-29T18:20:48.665Z,24.57
2022-07-29T18:23:18.155Z,24.51
2022-07-29T18:25:47.347Z,24.58
2022-07-29T18:28:16.822Z,24.40
2022-07-29T18:30:48.178Z,24.45
2022-07-29T18:33:21.833Z,24.42
2022-07-29T18:36:11.109Z,24.26
2022-07-29T18:38:41.761Z,24.27
2022-07-29T18:41:11.552Z,24.18
2022-07-29T18:43:40.794Z,24.09
2022-07-29T18:46:11.509Z,24.19
2022-07-29T18:48:42.153Z,24.20
2022-07-29T18:51:11.814Z,24.05
2022-07-29T18:53:41.122Z,24.11
2022-07-29T18:56:10.404Z,23.93
2022-07-29T18:58:40.834Z,23.85
2022-07-29T19:01:16.308Z,23.78
2022-07-29T19:03:46.046Z,23.70
2022-07-29T19:06:15.432Z,23.60
2022-07-29T19:08:44.656Z,23.59
2022-07-29T19:11:14.094Z,23.57
2022-07-29T19:13:44.388Z,23.53
2022-07-29T19:16:15.352Z,23.49
2022-07-29T19:18:44.783Z,23.31
2022-07-29T19:21:13.962Z,23.39
2022-07-29T19:24:00.766Z,23.39
2022-07-29T19:26:36.577Z,23.33
2022-07-29T19:29:06.483Z,23.38
2022-07-29T19:31:37.205Z,23.39
2022-07-29T19:34:06.480Z,23.43
2022-07-29T19:36:36.766Z,23.34
2022-07-29T19:39:06.818Z,23.31
2022-07-29T19:41:36.559Z,23.29
2022-07-29T19:44:08.901Z,23.26
2022-07-29T19:46:39.687Z,23.28
2022-07-29T19:49:10.346Z,23.34
2022-07-29T19:51:39.810Z,23.27
2022-07-29T19:54:10.000Z,23.30
2022-07-29T19:56:42.143Z,23.25
2022-07-29T19:59:11.790Z,23.23
2022-07-29T20:01:43.212Z,23.06
2022-07-29T20:04:12.515Z,22.98
2022-07-29T20:06:41.749Z,23.02
2022-07-29T20:09:16.656Z,22.95
2022-07-29T20:11:50.259Z,22.89
2022-07-29T20:14:19.913Z,22.93
2022-07-29T20:16:50.624Z,22.94
2022-07-29T20:19:20.035Z,22.91
2022-07-29T20:21:50.811Z,22.81
2022-07-29T20:24:20.521Z,22.88
2022-07-29T20:26:50.550Z,22.75
2022-07-29T20:29:20.055Z,22.70
2022-07-29T20:31:53.264Z,22.64
2022-07-29T20:34:26.829Z,22.70
2022-07-29T20:36:56.693Z,22.64
2022-07-29T20:39:27.664Z,22.59
2022-07-29T20:41:57.133Z,22.65
2022-07-29T20:44:26.384Z,22.65
2022-07-29T20:46:57.376Z,22.65
2022-07-29T20:49:27.324Z,22.59
2022-07-29T20:51:57.023Z,22.53
2022-07-29T20:54:28.788Z,22.56
2022-07-29T20:56:58.452Z,22.58
2022-07-29T20:59:28.097Z,22.46
2022-07-29T21:01:58.843Z,22.49
2022-07-29T21:04:30.758Z,22.59
2022-07-29T21:07:00.816Z,22.56
2022-07-29T21:09:31.073Z,22.63
2022-07-29T21:12:00.781Z,22.63
2022-07-29T21:14:47.758Z,22.66
2022-07-29T21:17:21.264Z,22.61
2022-07-29T21:19:52.811Z,22.67
2022-07-29T21:22:22.978Z,22.42
2022-07-29T21:24:52.373Z,22.69
2022-07-29T21:27:38.953Z,22.55
2022-07-29T21:30:10.547Z,22.60
2022-07-29T21:32:41.220Z,22.54
2022-07-29T21:35:22.397Z,22.51
2022-07-29T21:38:01.696Z,22.44
2022-07-29T21:40:30.913Z,22.49
2022-07-29T21:43:00.307Z,22.37
2022-07-29T21:45:29.655Z,22.34
2022-07-29T21:48:00.331Z,22.33
2022-07-29T21:50:29.590Z,22.30
2022-07-29T21:52:59.218Z,22.17
2022-07-29T21:55:28.836Z,22.23
2022-07-29T21:57:59.777Z,22.24
2022-07-29T22:00:31.250Z,22.26
2022-07-29T22:03:03.362Z,22.26
2022-07-29T22:05:33.227Z,22.21
2022-07-29T22:08:02.620Z,22.23
2022-07-29T22:10:33.631Z,22.16
2022-07-29T22:13:04.217Z,22.07
2022-07-29T22:15:33.766Z,22.17
2022-07-29T22:18:04.585Z,22.14
2022-07-29T22:20:34.065Z,22.17
2022-07-29T22:23:04.165Z,22.12
2022-07-29T22:25:33.515Z,22.06
2022-07-29T22:28:02.815Z,22.03
2022-07-29T22:30:32.173Z,22.06
2022-07-29T22:33:01.440Z,21.96
2022-07-29T22:35:32.353Z,21.94
2022-07-29T22:38:01.934Z,21.94
2022-07-29T22:40:34.917Z,21.93
2022-07-29T22:43:05.201Z,21.91
2022-07-29T22:45:34.738Z,21.95
2022-07-29T22:48:04.186Z,21.92
2022-07-29T22:50:35.281Z,21.93
2022-07-29T22:53:04.799Z,21.92
2022-07-29T22:55:34.297Z,21.87
2022-07-29T22:58:03.692Z,21.82
2022-07-29T23:00:33.368Z,21.73
2022-07-29T23:03:02.807Z,21.77
2022-07-29T23:05:32.804Z,21.81
2022-07-29T23:08:03.763Z,21.64
2022-07-29T23:10:33.575Z,21.77
2022-07-29T23:13:02.999Z,21.66
2022-07-29T23:15:32.584Z,21.85
2022-07-29T23:18:02.287Z,21.86
2022-07-29T23:20:31.709Z,21.81
2022-07-29T23:23:02.398Z,21.76
2022-07-29T23:25:32.115Z,21.84
2022-07-29T23:28:01.572Z,21.74
2022-07-29T23:30:31.428Z,21.68
2022-07-29T23:33:00.847Z,21.68
2022-07-29T23:35:30.093Z,21.68
2022-07-29T23:37:59.405Z,21.76
2022-07-29T23:40:30.341Z,21.76
2022-07-29T23:42:59.738Z,21.79
2022-07-29T23:45:39.988Z,21.69
2022-07-29T23:48:14.676Z,21.70
2022-07-29T23:50:44.162Z,21.76
2022-07-29T23:53:13.480Z,21.64
2022-07-29T23:55:44.077Z,21.63
2022-07-29T23:58:13.500Z,21.63
